createdAt,value
2022-09-15T00:00:23.343Z,99.91
2022-09-15T00:02:54.144Z,99.74
2022-09-15T00:05:24.532Z,99.99
2022-09-15T00:07:55.104Z,99.99
2022-09-15T00:10:25.749Z,99.99
2022-09-15T00:12:57.029Z,99.99
2022-09-15T00:15:27.289Z,99.99
2022-09-15T00:17:57.635Z,99.99
2022-09-15T00:20:28.223Z,99.99
2022-09-15T00:22:58.530Z,99.99
2022-09-15T00:25:28.776Z,99.99
2022-09-15T00:27:59.366Z,99.99
2022-09-15T00:30:29.942Z,99.99
2022-09-15T00:33:00.372Z,99.99
2022-09-15T00:35:30.399Z,99.99
2022-09-15T00:38:00.874Z,99.99
2022-09-15T00:40:31.787Z,99.99
2022-09-15T00:43:02.430Z,99.99
2022-09-15T00:45:32.759Z,99.99
2022-09-15T00:48:03.996Z,99.99
2022-09-15T00:50:36.419Z,99.99
2022-09-15T00:53:10.308Z,99.99
2022-09-15T00:55:46.825Z,99.99
2022-09-15T00:58:32.820Z,99.99
2022-09-15T01:01:05.736Z,99.99
2022-09-15T01:03:36.841Z,99.99
2022-09-15T01:06:15.475Z,99.99
2022-09-15T01:08:54.282Z,99.99
2022-09-15T01:11:24.935Z,99.99
2022-09-15T01:13:55.667Z,99.99
2022-09-15T01:16:49.473Z,99.99
2022-09-15T01:19:57.996Z,99.99
2022-09-15T01:22:55.810Z,99.99
2022-09-15T01:25:47.338Z,99.99
2022-09-15T01:28:48.619Z,99.99
2022-09-15T01:31:32.127Z,99.99
2022-09-15T01:34:18.170Z,99.99
2022-09-15T01:36:59.273Z,99.99
2022-09-15T01:39:43.139Z,99.99
2022-09-15T01:42:17.435Z,99.99
2022-09-15T01:44:53.070Z,99.99
2022-09-15T01:47:24.639Z,99.99
2022-09-15T01:50:03.680Z,99.99
2022-09-15T01:52:35.517Z,99.99
2022-09-15T01:55:17.899Z,99.99
2022-09-15T01:57:48.347Z,99.99
2022-09-15T02:00:19.026Z,99.99
2022-09-15T02:03:00.335Z,99.99
2022-09-15T02:05:42.688Z,99.99
2022-09-15T02:08:44.242Z,99.99
2022-09-15T02:11:21.671Z,99.99
2022-09-15T02:14:01.081Z,99.99
2022-09-15T02:16:36.645Z,99.99
2022-09-15T02:19:32.991Z,99.99
2022-09-15T02:22:12.320Z,99.99
2022-09-15T02:24:47.125Z,99.99
2022-09-15T02:27:25.615Z,99.99
2022-09-15T02:30:00.970Z,99.99
2022-09-15T02:32:33.909Z,99.99
2022-09-15T02:35:09.333Z,99.99
2022-09-15T02:37:40.489Z,99.99
2022-09-15T02:40:11.246Z,99.99
2022-09-15T02:42:43.896Z,99.99
2022-09-15T02:45:14.578Z,99.99
2022-09-15T02:47:44.892Z,99.99
2022-09-15T02:50:15.013Z,99.99
2022-09-15T02:52:45.564Z,99.99
2022-09-15T02:55:17.094Z,99.99
2022-09-15T02:57:47.521Z,99.99
2022-09-15T03:00:18.802Z,99.99
2022-09-15T03:02:52.229Z,99.99
2022-09-15T03:05:25.919Z,99.99
2022-09-15T03:07:57.021Z,99.99
2022-09-15T03:10:28.204Z,99.99
2022-09-15T03:12:58.805Z,99.99
2022-09-15T03:15:29.315Z,99.99
2022-09-15T03:18:00.000Z,99.99
2022-09-15T03:20:31.603Z,99.99
2022-09-15T03:23:04.731Z,99.99
2022-09-15T03:25:34.970Z,99.99
2022-09-15T03:28:05.392Z,99.99
2022-09-15T03:30:36.022Z,99.99
2022-09-15T03:33:06.975Z,99.99
2022-09-15T03:35:37.275Z,99.99
2022-09-15T03:38:07.229Z,99.99
2022-09-15T03:40:38.971Z,99.99
2022-09-15T03:43:10.081Z,99.99
2022-09-15T03:45:41.105Z,99.99
2022-09-15T03:48:11.626Z,99.99
2022-09-15T03:50:41.772Z,99.99
2022-09-15T03:53:11.923Z,99.99
2022-09-15T03:55:42.013Z,99.99
2022-09-15T03:58:12.555Z,99.99
2022-09-15T04:00:43.181Z,99.99
2022-09-15T04:03:14.556Z,99.99
2022-09-15T04:05:45.215Z,99.99
2022-09-15T04:08:16.045Z,99.99
2022-09-15T04:10:46.897Z,99.99
2022-09-15T04:13:17.114Z,99.99
2022-09-15T04:15:47.335Z,99.99
2022-09-15T04:18:17.413Z,99.99
2022-09-15T04:20:47.800Z,99.99
2022-09-15T04:23:18.311Z,99.99
2022-09-15T04:26:00.192Z,99.99
2022-09-15T04:28:33.376Z,99.99
2022-09-15T04:31:12.403Z,99.99
2022-09-15T04:33:44.606Z,99.99
2022-09-15T04:36:20.738Z,99.99
2022-09-15T04:38:52.329Z,99.99
2022-09-15T04:41:23.682Z,99.99
2022-09-15T04:43:54.381Z,99.99
2022-09-15T04:46:24.526Z,99.99
2022-09-15T04:48:55.119Z,99.99
2022-09-15T04:51:26.331Z,99.99
2022-09-15T04:53:57.118Z,99.99
2022-09-15T04:56:29.082Z,99.99
2022-09-15T04:59:04.165Z,99.99
2022-09-15T05:01:37.198Z,99.99
2022-09-15T05:04:07.388Z,99.99
2022-09-15T05:06:38.294Z,99.99
2022-09-15T05:09:10.590Z,99.99
2022-09-15T05:11:41.741Z,99.99
2022-09-15T05:14:12.538Z,99.99
2022-09-15T05:16:43.160Z,99.99
2022-09-15T05:19:14.001Z,99.99
2022-09-15T05:21:44.348Z,99.99
2022-09-15T05:24:14.439Z,99.99
2022-09-15T05:26:45.444Z,99.99
2022-09-15T05:29:16.376Z,99.99
2022-09-15T05:31:46.964Z,99.99
2022-09-15T05:34:17.482Z,99.99
2022-09-15T05:36:47.805Z,99.99
2022-09-15T05:39:18.455Z,99.99
2022-09-15T05:41:48.649Z,99.99
2022-09-15T05:44:18.683Z,99.99
2022-09-15T05:46:49.177Z,99.99
2022-09-15T05:49:19.892Z,99.99
2022-09-15T05:51:50.427Z,99.99
2022-09-15T05:54:20.559Z,99.99
2022-09-15T05:56:50.660Z,99.99
2022-09-15T05:59:20.832Z,99.99
2022-09-15T06:01:51.292Z,99.99
2022-09-15T06:04:21.867Z,99.99
2022-09-15T06:06:52.737Z,99.99
2022-09-15T06:09:22.823Z,99.99
2022-09-15T06:11:53.515Z,99.99
2022-09-15T06:14:24.036Z,99.99
2022-09-15T06:16:54.537Z,99.99
2022-09-15T06:19:25.071Z,99.99
2022-09-15T06:21:55.526Z,99.99
2022-09-15T06:24:25.605Z,99.99
2022-09-15T06:26:55.931Z,99.99
2022-09-15T06:29:26.807Z,99.99
2022-09-15T06:31:58.355Z,99.99
2022-09-15T06:34:28.827Z,99.99
2022-09-15T06:36:59.368Z,99.99
2022-09-15T06:39:30.178Z,99.99
2022-09-15T06:42:03.108Z,99.99
2022-09-15T06:44:34.651Z,99.99
2022-09-15T06:47:05.428Z,99.99
2022-09-15T06:49:36.072Z,99.99
2022-09-15T06:52:06.416Z,99.99
2022-09-15T06:54:36.421Z,99.99
2022-09-15T06:57:07.165Z,99.99
2022-09-15T06:59:37.666Z,99.99
2022-09-15T07:02:08.060Z,99.99
2022-09-15T07:04:41.359Z,99.99
2022-09-15T07:07:12.003Z,99.99
2022-09-15T07:09:46.022Z,99.99
2022-09-15T07:12:18.620Z,99.99
2022-09-15T07:14:48.635Z,99.99
2022-09-15T07:17:18.958Z,99.99
2022-09-15T07:19:49.648Z,99.99
2022-09-15T07:22:19.538Z,99.99
2022-09-15T07:24:49.563Z,99.99
2022-09-15T07:27:19.571Z,99.99
2022-09-15T07:29:49.997Z,99.99
2022-09-15T07:32:20.284Z,99.99
2022-09-15T07:34:50.775Z,99.99
2022-09-15T07:37:21.069Z,99.99
2022-09-15T07:39:51.478Z,99.99
2022-09-15T07:42:21.969Z,99.99
2022-09-15T07:44:53.305Z,99.99
2022-09-15T07:47:23.548Z,99.99
2022-09-15T07:49:54.301Z,99.99
2022-09-15T07:52:24.870Z,99.99
2022-09-15T07:54:55.770Z,99.99
2022-09-15T07:57:26.329Z,99.99
2022-09-15T07:59:56.543Z,99.99
2022-09-15T08:02:27.194Z,99.99
2022-09-15T08:04:59.257Z,99.99
2022-09-15T08:07:29.763Z,99.99
2022-09-15T08:09:59.836Z,99.99
2022-09-15T08:12:31.938Z,99.99
2022-09-15T08:15:02.955Z,99.99
2022-09-15T08:17:33.737Z,99.99
2022-09-15T08:20:04.531Z,99.99
2022-09-15T08:22:35.195Z,99.99
2022-09-15T08:25:05.998Z,99.99
2022-09-15T08:27:36.724Z,99.99
2022-09-15T08:30:08.508Z,99.99
2022-09-15T08:32:38.805Z,99.99
2022-09-15T08:35:10.109Z,99.99
2022-09-15T08:37:41.149Z,99.99
2022-09-15T08:40:22.564Z,99.99
2022-09-15T08:42:56.819Z,99.99
2022-09-15T08:45:32.153Z,99.99
2022-09-15T08:48:05.463Z,99.99
2022-09-15T08:50:43.369Z,99.99
2022-09-15T08:53:27.752Z,99.99
2022-09-15T08:56:09.802Z,99.99
2022-09-15T08:58:41.321Z,99.99
2022-09-15T09:01:48.543Z,99.99
2022-09-15T09:04:31.759Z,99.99
2022-09-15T09:07:20.543Z,99.99
2022-09-15T09:10:15.082Z,99.99
2022-09-15T09:12:54.387Z,99.99
2022-09-15T09:15:46.054Z,99.99
2022-09-15T09:18:34.747Z,99.99
2022-09-15T09:21:08.642Z,99.99
2022-09-15T09:24:12.677Z,99.99
2022-09-15T09:26:43.641Z,99.99
2022-09-15T09:29:21.422Z,99.99
2022-09-15T09:31:55.472Z,99.99
2022-09-15T09:34:45.850Z,99.99
2022-09-15T09:37:18.256Z,99.99
2022-09-15T09:39:49.562Z,99.99
2022-09-15T09:42:21.525Z,99.99
2022-09-15T09:44:52.114Z,99.99
2022-09-15T09:47:22.751Z,99.99
2022-09-15T09:49:53.049Z,99.99
2022-09-15T09:52:41.854Z,99.99
2022-09-15T09:55:21.260Z,99.99
2022-09-15T09:57:51.716Z,99.99
2022-09-15T10:00:35.624Z,99.99
2022-09-15T10:03:32.186Z,99.99
2022-09-15T10:06:24.596Z,99.99
2022-09-15T10:08:59.524Z,99.99
2022-09-15T10:11:45.972Z,99.99
2022-09-15T10:14:38.100Z,99.99
2022-09-15T10:17:42.725Z,99.99
2022-09-15T10:20:33.544Z,99.99
2022-09-15T10:23:28.122Z,99.99
2022-09-15T10:26:20.297Z,99.99
2022-09-15T10:29:10.305Z,99.99
2022-09-15T10:31:41.384Z,99.99
2022-09-15T10:34:33.393Z,99.99
2022-09-15T10:37:23.358Z,99.99
2022-09-15T10:40:01.272Z,99.99
2022-09-15T10:42:59.492Z,99.99
2022-09-15T10:45:40.266Z,99.99
2022-09-15T10:48:29.756Z,99.99
2022-09-15T10:51:21.322Z,99.99
2022-09-15T10:53:57.727Z,99.99
2022-09-15T10:56:42.577Z,99.35
2022-09-15T10:59:23.598Z,98.09
2022-09-15T11:02:24.093Z,96.44
2022-09-15T11:05:21.961Z,95.55
2022-09-15T11:08:04.408Z,94.07
2022-09-15T11:10:50.146Z,93.90
2022-09-15T11:13:27.188Z,93.25
2022-09-15T11:16:36.527Z,92.81
2022-09-15T11:19:09.831Z,93.29
2022-09-15T11:21:48.435Z,92.81
2022-09-15T11:24:38.466Z,91.86
2022-09-15T11:27:14.566Z,92.60
2022-09-15T11:30:08.510Z,92.73
2022-09-15T11:32:48.975Z,91.92
2022-09-15T11:35:36.339Z,90.64
2022-09-15T11:38:35.463Z,91.99
2022-09-15T11:41:24.027Z,93.44
2022-09-15T11:44:07.528Z,92.76
2022-09-15T11:47:12.494Z,91.27
2022-09-15T11:49:57.751Z,91.26
2022-09-15T11:52:36.326Z,90.27
2022-09-15T11:55:20.208Z,89.81
2022-09-15T11:57:56.781Z,88.14
2022-09-15T12:00:27.480Z,88.31
2022-09-15T12:03:22.426Z,87.67
2022-09-15T12:06:08.939Z,86.43
2022-09-15T12:08:45.831Z,85.70
2022-09-15T12:11:24.522Z,86.06
2022-09-15T12:13:57.373Z,85.72
2022-09-15T12:16:29.375Z,84.70
2022-09-15T12:19:15.824Z,85.56
2022-09-15T12:22:04.593Z,85.22
2022-09-15T12:24:40.990Z,84.57
2022-09-15T12:27:18.226Z,83.96
2022-09-15T12:29:57.110Z,82.59
2022-09-15T12:32:30.927Z,84.76
2022-09-15T12:35:04.877Z,81.57
2022-09-15T12:37:50.708Z,78.34
2022-09-15T12:40:41.547Z,79.71
2022-09-15T12:43:14.868Z,78.69
2022-09-15T12:45:59.644Z,78.39
2022-09-15T12:48:34.796Z,78.23
2022-09-15T12:51:14.022Z,77.65
2022-09-15T12:54:01.838Z,78.22
2022-09-15T12:56:35.127Z,78.61
2022-09-15T12:59:16.999Z,79.28
2022-09-15T13:01:50.444Z,80.77
2022-09-15T13:04:43.065Z,81.05
2022-09-15T13:07:22.248Z,80.98
2022-09-15T13:10:00.458Z,83.16
2022-09-15T13:12:37.995Z,83.08
2022-09-15T13:15:14.624Z,83.55
2022-09-15T13:17:48.937Z,83.17
2022-09-15T13:20:31.104Z,82.20
2022-09-15T13:23:03.496Z,83.86
2022-09-15T13:25:35.208Z,83.87
2022-09-15T13:28:06.282Z,81.76
2022-09-15T13:30:55.343Z,79.47
2022-09-15T13:40:47.303Z,78.05
2022-09-15T13:43:51.591Z,78.08
2022-09-15T13:46:58.667Z,77.08
2022-09-15T13:49:36.824Z,76.97
2022-09-15T13:52:32.458Z,76.56
2022-09-15T13:55:15.455Z,75.36
2022-09-15T14:01:02.575Z,78.28
2022-09-15T14:04:09.331Z,77.26
2022-09-15T14:06:43.071Z,74.60
2022-09-15T14:09:48.807Z,75.14
2022-09-15T14:12:20.045Z,73.63
2022-09-15T14:14:55.908Z,73.36
2022-09-15T14:17:32.858Z,72.20
2022-09-15T14:20:05.560Z,72.42
2022-09-15T14:22:36.887Z,71.84
2022-09-15T14:25:16.345Z,70.32
2022-09-15T14:27:49.177Z,68.92
2022-09-15T14:30:25.716Z,71.40
2022-09-15T14:33:01.343Z,72.22
2022-09-15T14:35:40.158Z,70.18
2022-09-15T14:38:23.005Z,70.77
2022-09-15T14:40:55.759Z,73.94
2022-09-15T14:43:28.097Z,74.30
2022-09-15T14:46:10.944Z,80.89
2022-09-15T14:48:41.694Z,74.51
2022-09-15T14:51:34.333Z,74.29
2022-09-15T14:54:06.414Z,71.29
2022-09-15T14:56:41.064Z,70.93
2022-09-15T14:59:28.697Z,73.81
2022-09-15T15:02:26.237Z,70.95
2022-09-15T15:05:09.305Z,73.29
2022-09-15T15:07:41.422Z,70.70
2022-09-15T15:10:31.140Z,68.95
2022-09-15T15:13:13.371Z,66.24
2022-09-15T15:15:44.192Z,65.80
2022-09-15T15:18:39.756Z,68.83
2022-09-15T15:21:46.493Z,70.75
2022-09-15T15:24:25.058Z,70.40
2022-09-15T15:26:55.239Z,72.58
2022-09-15T15:29:44.392Z,71.89
2022-09-15T15:32:22.438Z,73.29
2022-09-15T15:34:55.755Z,69.81
2022-09-15T15:37:25.785Z,67.17
2022-09-15T15:39:58.154Z,67.15
2022-09-15T15:42:29.880Z,67.31
2022-09-15T15:45:03.164Z,67.42
2022-09-15T15:47:37.321Z,66.43
2022-09-15T15:50:23.318Z,63.80
2022-09-15T15:52:54.669Z,63.76
2022-09-15T15:55:29.956Z,62.66
2022-09-15T15:58:00.283Z,62.62
2022-09-15T16:00:52.868Z,66.36
2022-09-15T16:03:24.452Z,64.73
2022-09-15T16:05:59.733Z,64.73
2022-09-15T16:08:41.109Z,62.38
2022-09-15T16:11:16.322Z,62.68
2022-09-15T16:13:46.765Z,62.73
2022-09-15T16:16:21.063Z,63.05
2022-09-15T16:18:52.585Z,62.54
2022-09-15T16:21:38.182Z,63.99
2022-09-15T16:24:16.741Z,59.97
2022-09-15T16:26:50.629Z,58.81
2022-09-15T16:29:28.007Z,58.65
2022-09-15T16:31:58.677Z,60.97
2022-09-15T16:34:29.225Z,63.73
2022-09-15T16:36:59.318Z,68.16
2022-09-15T16:39:29.371Z,70.06
2022-09-15T16:44:34.683Z,66.29
2022-09-15T16:47:07.472Z,67.45
2022-09-15T16:49:40.425Z,68.19
2022-09-15T16:52:14.764Z,67.80
2022-09-15T16:54:44.966Z,65.81
2022-09-15T16:57:15.335Z,62.54
2022-09-15T16:59:45.874Z,60.60
2022-09-15T17:02:16.540Z,60.85
2022-09-15T17:04:46.498Z,59.00
2022-09-15T17:07:16.354Z,58.99
2022-09-15T17:09:48.218Z,60.83
2022-09-15T17:12:18.918Z,58.79
2022-09-15T17:14:49.069Z,59.21
2022-09-15T17:17:26.626Z,58.14
2022-09-15T17:19:57.473Z,56.13
2022-09-15T17:22:28.524Z,57.00
2022-09-15T17:24:58.886Z,57.69
2022-09-15T17:27:28.963Z,58.70
2022-09-15T17:29:59.003Z,57.19
2022-09-15T17:32:34.164Z,57.74
2022-09-15T17:35:20.201Z,59.25
2022-09-15T17:37:51.215Z,57.52
2022-09-15T17:40:23.001Z,59.24
2022-09-15T17:42:54.196Z,58.70
2022-09-15T17:45:27.394Z,61.68
2022-09-15T17:47:58.579Z,63.76
2022-09-15T17:50:31.053Z,63.11
2022-09-15T17:53:02.143Z,65.37
2022-09-15T17:55:35.079Z,64.98
2022-09-15T17:58:06.823Z,65.66
2022-09-15T18:00:39.377Z,65.34
2022-09-15T18:03:15.202Z,63.66
2022-09-15T18:05:46.701Z,64.92
2022-09-15T18:08:18.119Z,65.52
2022-09-15T18:10:48.772Z,64.82
2022-09-15T18:13:21.802Z,65.29
2022-09-15T18:15:52.722Z,63.06
2022-09-15T18:18:25.972Z,63.07
2022-09-15T18:20:59.223Z,61.15
2022-09-15T18:23:30.719Z,60.03
2022-09-15T18:26:01.439Z,59.31
2022-09-15T18:28:31.802Z,58.95
2022-09-15T18:31:01.961Z,58.92
2022-09-15T18:33:32.225Z,58.95
2022-09-15T18:36:02.762Z,60.06
2022-09-15T18:38:33.223Z,59.36
2022-09-15T18:41:03.513Z,58.30
2022-09-15T18:43:33.878Z,59.11
2022-09-15T18:46:04.624Z,60.06
2022-09-15T18:48:35.350Z,60.15
2022-09-15T18:51:10.829Z,61.19
2022-09-15T18:53:42.230Z,60.90
2022-09-15T18:56:14.084Z,60.12
2022-09-15T18:58:44.310Z,63.70
2022-09-15T19:01:14.229Z,60.62
2022-09-15T19:03:44.376Z,61.55
2022-09-15T19:06:14.778Z,59.78
2022-09-15T19:08:46.169Z,59.22
2022-09-15T19:11:16.408Z,59.47
2022-09-15T19:13:46.889Z,60.71
2022-09-15T19:16:20.178Z,59.84
2022-09-15T19:18:54.848Z,60.23
2022-09-15T19:21:27.395Z,61.46
2022-09-15T19:23:59.371Z,60.41
2022-09-15T19:26:30.704Z,59.32
2022-09-15T19:29:01.627Z,60.25
2022-09-15T19:31:32.389Z,60.72
2022-09-15T19:34:05.434Z,62.15
2022-09-15T19:36:35.902Z,62.36
2022-09-15T19:39:06.818Z,62.81
2022-09-15T19:41:36.846Z,63.78
2022-09-15T19:44:09.514Z,65.21
2022-09-15T19:46:41.481Z,64.81
2022-09-15T19:49:12.642Z,64.87
2022-09-15T19:51:43.735Z,65.04
2022-09-15T19:54:13.864Z,65.08
2022-09-15T19:56:43.742Z,65.13
2022-09-15T19:59:13.684Z,66.30
2022-09-15T20:01:43.882Z,67.10
2022-09-15T20:04:15.161Z,66.76
2022-09-15T20:06:45.712Z,67.28
2022-09-15T20:09:16.883Z,67.05
2022-09-15T20:11:47.305Z,67.26
2022-09-15T20:14:17.794Z,67.82
2022-09-15T20:16:48.234Z,67.13
2022-09-15T20:19:19.598Z,67.38
2022-09-15T20:21:51.080Z,67.94
2022-09-15T20:24:22.191Z,68.53
2022-09-15T20:26:54.211Z,67.70
2022-09-15T20:29:25.254Z,68.95
2022-09-15T20:31:55.758Z,68.64
2022-09-15T20:34:25.755Z,68.55
2022-09-15T20:36:56.869Z,70.02
2022-09-15T20:39:27.795Z,69.81
2022-09-15T20:41:58.915Z,69.70
2022-09-15T20:44:29.467Z,70.47
2022-09-15T20:46:59.900Z,70.42
2022-09-15T20:49:30.537Z,70.52
2022-09-15T20:52:00.865Z,70.80
2022-09-15T20:54:31.230Z,72.16
2022-09-15T20:57:02.707Z,72.78
2022-09-15T20:59:33.617Z,73.95
2022-09-15T21:02:05.945Z,74.19
2022-09-15T21:04:36.625Z,74.50
2022-09-15T21:07:06.865Z,73.80
2022-09-15T21:09:37.732Z,74.93
2022-09-15T21:12:08.057Z,76.09
2022-09-15T21:14:37.996Z,76.18
2022-09-15T21:17:08.190Z,77.83
2022-09-15T21:19:39.162Z,77.64
2022-09-15T21:22:10.024Z,78.31
2022-09-15T21:24:40.069Z,79.42
2022-09-15T21:27:28.453Z,80.35
2022-09-15T21:29:59.267Z,81.17
2022-09-15T21:32:31.111Z,80.82
2022-09-15T21:35:01.392Z,82.04
2022-09-15T21:37:31.432Z,82.53
2022-09-15T21:40:01.595Z,83.30
2022-09-15T21:42:31.510Z,84.22
2022-09-15T21:45:02.533Z,84.91
2022-09-15T21:47:35.239Z,85.81
2022-09-15T21:50:05.773Z,86.42
2022-09-15T21:52:35.888Z,86.79
2022-09-15T21:55:05.948Z,86.79
2022-09-15T21:57:35.991Z,87.55
2022-09-15T22:00:08.313Z,87.32
2022-09-15T22:02:39.155Z,87.06
2022-09-15T22:05:09.569Z,86.86
2022-09-15T22:07:41.408Z,86.90
2022-09-15T22:10:11.831Z,86.64
2022-09-15T22:12:42.709Z,86.84
2022-09-15T22:15:13.552Z,87.43
2022-09-15T22:17:43.511Z,87.77
2022-09-15T22:20:14.270Z,87.90
2022-09-15T22:22:45.552Z,88.43
2022-09-15T22:25:21.654Z,88.83
2022-09-15T22:27:52.587Z,88.85
2022-09-15T22:30:23.075Z,88.84
2022-09-15T22:32:54.637Z,89.12
2022-09-15T22:35:26.250Z,89.53
2022-09-15T22:37:56.738Z,90.23
2022-09-15T22:40:27.362Z,90.66
2022-09-15T22:42:57.418Z,90.91
2022-09-15T22:45:27.519Z,91.52
2022-09-15T22:47:57.994Z,91.62
2022-09-15T22:50:28.695Z,91.71
2022-09-15T22:52:59.357Z,92.10
2022-09-15T22:55:29.693Z,92.29
2022-09-15T22:57:59.911Z,92.64
2022-09-15T23:00:30.246Z,93.19
2022-09-15T23:03:00.454Z,93.31
2022-09-15T23:05:30.859Z,93.79
2022-09-15T23:08:01.236Z,94.02
2022-09-15T23:10:32.869Z,94.47
2022-09-15T23:13:03.669Z,94.39
2022-09-15T23:15:36.408Z,94.77
2022-09-15T23:18:06.825Z,94.74
2022-09-15T23:20:36.959Z,94.71
2022-09-15T23:23:07.590Z,94.40
2022-09-15T23:25:38.626Z,94.23
2022-09-15T23:28:09.142Z,94.79
2022-09-15T23:30:40.476Z,95.25
2022-09-15T23:33:11.361Z,95.84
2022-09-15T23:35:42.498Z,96.14
2022-09-15T23:38:12.949Z,96.47
2022-09-15T23:40:44.215Z,96.53
2022-09-15T23:43:15.334Z,96.66
2022-09-15T23:45:47.483Z,96.65
2022-09-15T23:48:18.045Z,97.06
2022-09-15T23:50:48.325Z,97.06
2022-09-15T23:53:19.533Z,97.12
2022-09-15T23:55:50.550Z,97.56
2022-09-15T23:58:20.813Z,97.82
